A- A+ FrançaisEnglishEspañol中国

最近的 LFBT Tarbes-Lourdes-PyrénéesLFOB Beauvais-TilleLFBD Bordeaux-MerignacLFRI La-Roche-Sur-Yon-Les-Ajones

manche à air

飞行员的航空天气,使用METAR(气象机场报告)进行的飞行准备和TAF(终端机场预报:针对以下情况的短期天气预报)航空)。 以及其他资源,例如VAC(目视进近图)和NOTAM(通知飞行员)以进行预试飞行.

Brandon机场 (加拿大) / OACI CYBR/ IATA YBR

Brandon机场的高度为409 m=1342 ft. 它位于附近 Brandon (加拿大). 可提供5天天气预报 Carnegie 位于 12.3 km.

METAR Brandon机场的 - CYBR

CYBR 041600Z 31021KT 15SM FEW048 FEW120 M06/M13 A3008 RMK SC1AC1 SLP216

Brandon机场METAR解码 (CA)

CYBR机场发行的METAR日期lundi 4 novembre 2019至16:00 GMT. 警告:此METAR已过期,已于677分钟前发布.

可见度为24.1 km=15 sm.

温度为-6°C=21 °F 露点为-13°C=9 °F 。 这相当于58%的相对湿度。.

QNH是1019 hPa=30.09 inHg

的风21 kt=39 km/h, 风向为310°.

云:处少云4800 ft=1460云. 处少云12000 ft=3660云.

RMK SC1AC1 SLP216

TAF Brandon机场的 - CYBR

CYBR 041139Z 0412/0424 36015G25KT P6SM BKN040 TEMPO 0412/0414 5SM -SHSN BKN020 FM041400 32015G25KT P6SM BKN040 TEMPO 0414/0424 SCT040 RMK NXT FCST BY 041800Z

CYBR 041139Z 0412/0424 36015G25KT P6SM 距云040 暂时 0412/0414 5SM 光SHSN 距云020 FM041400 32015G25KT P6SM 距云040 暂时 0414/0424 距离040 备注 NXT 漏斗云ST BY 041800Z

附近的机场Brandon

Carnegie的一般天气5天预报 (12.3 km)CYPG Portage La Prairie Southport机场 (120 km)CYDN Dauphin机场 (133 km)KRUG Rugby Mun机场 (169 km)KHBC Mohall Mun机场 (171 km)CYWG Winnipeg机场 (194 km)KMIB Minot AFB机场 (195 km)

的鸟瞰图

Brandon机场的NOTAM

提供的NOTAM不能保证其时事性。 在将其用于飞行准备或在飞行期间使用之前,飞行员是唯一负责验证其有效性的人员。

没有通知

数据源